Ariton, AL

10:18 PM CST on March 02, 2015 (GMT -0600)
Asbury | Change Station
CLOSE
Current Station
Personal Weather Station
Location: Ozark, AL
Elevation: 367 ft
Nearby Weather Stations

Elev 367 ft 31.51 °N, 85.55 °W | Updated 1 minute ago

Overcast
Overcast
59.9 °F
Feels Like 59.9 °F
N
0.0
Wind Variable Wind from ENE
Gusts 1.0 mph

Today
High -- | Low -- °F
--% Chance of Precip.
Yesterday
High -- | Low -- °F
Precip. -- in
6:08 AM 5:41 PM
Waxing Gibbous, 94% visible
Pressure 30.24 in
Visibility 0.2 miles
Clouds
Dew Point 59 °F
Humidity 97%
Rainfall 0.00 in
Snow Depth Not available.
UV Not available.
Pollen 6.50 out of 12
Air Quality Not available.
Flu Activity Not available.
METAR KLOR 030353Z AUTO 35003KT 1/4SM FG VV002 16/15 A3024 RMK AO2 SLP239 T01560150

More Conditions Fewer Conditions

Pressure 30.24 in
Visibility 0.2 miles
Clouds
Dew Point 59 °F
Humidity 97%
Rainfall 0.00 in
Snow Depth Not available.
UV Not available.
Pollen 6.50 out of 12
Air Quality Not available.
Flu Activity Not available.
METAR KLOR 030353Z AUTO 35003KT 1/4SM FG VV002 16/15 A3024 RMK AO2 SLP239 T01560150

More Conditions Fewer Conditions

10-Day Weather Forecast

Almanac

Astronomy

Mar. 02, 2015 Rise Set
Actual Time
Civil Twilight
Nautical Twilight
Astronomical Twilight
Moon
Length of Visible Light
Length of Day
Tomorrow will be .
, % of the Moon is Illuminated

Today's Extremes

State Highs State Lows

Community

WunderPhotos

Upload Photos

1,802,064 photos uploaded!

WunderBlogs® & News

Nearby

Air Quality

  Air Quality AQ Index Pollutant
Not available.

Snow Depth

Station Depth Elevation

Earthquake Activity

City Distance Mag. Time & Date
Minimum magnitude displayed is 2.5.

Coastal Water Temperatures

Place Temperature

Nearby Weather Stations